Time;durP1;ratioP1;P1;durP2;ratioP2;P2;SDS_P1;SDS_P2;PMS_P1;PMS_P2;Temp;Humidity;BMP_temperature;BMP_pressure;BME280_temperature;BME280_humidity;BME280_pressure;Samples;Min_cycle;Max_cycle;Signal;HPM_P1;HPM_P2
2021/04/19 00:01:07;;;;;;;34.03;21.75;;;;;;;6.89;100.00;96516.84;4949732;28;20552;-56
2021/04/19 00:03:35;;;;;;;32.75;22.40;;;;;;;6.75;100.00;96521.50;4945483;28;20083;-52
2021/04/19 00:06:03;;;;;;;31.33;20.75;;;;;;;6.93;100.00;96511.34;4962735;28;20469;-54
2021/04/19 00:08:32;;;;;;;31.05;21.80;;;;;;;6.83;100.00;96509.44;4953594;28;20063;-51
2021/04/19 00:11:00;;;;;;;34.00;20.85;;;;;;;7.13;100.00;96505.38;4952968;28;20462;-53
2021/04/19 00:13:27;;;;;;;33.00;22.45;;;;;;;7.20;100.00;96505.72;4967115;28;20555;-53
2021/04/19 00:15:54;;;;;;;32.00;21.10;;;;;;;7.13;100.00;96502.75;4968903;28;20070;-50
2021/04/19 00:18:22;;;;;;;34.33;22.05;;;;;;;6.79;100.00;96499.34;4968833;28;20078;-57
2021/04/19 00:20:50;;;;;;;30.90;21.75;;;;;;;6.98;100.00;96498.69;4968385;28;20073;-55
2021/04/19 00:23:17;;;;;;;35.10;22.35;;;;;;;7.21;100.00;96502.94;4964952;28;20477;-55
2021/04/19 00:25:46;;;;;;;31.98;21.10;;;;;;;7.18;100.00;96487.47;4968090;28;20310;-55
2021/04/19 00:28:13;;;;;;;31.55;21.95;;;;;;;6.96;100.00;96490.13;4964500;28;20073;-54
2021/04/19 00:30:41;;;;;;;33.42;21.60;;;;;;;6.84;100.00;96487.50;4969548;28;20082;-53
2021/04/19 00:33:09;;;;;;;31.48;21.55;;;;;;;7.16;100.00;96492.00;4969301;28;20101;-53
2021/04/19 00:35:37;;;;;;;33.42;22.73;;;;;;;6.84;100.00;96490.13;4966594;28;20062;-53
2021/04/19 00:38:05;;;;;;;34.70;23.27;;;;;;;6.96;100.00;96483.09;4968041;28;20081;-49
2021/04/19 00:40:33;;;;;;;35.78;22.88;;;;;;;6.87;100.00;96484.66;4965440;28;20062;-53
2021/04/19 00:43:01;;;;;;;35.55;23.60;;;;;;;6.95;100.00;96483.22;4969418;28;20090;-53
2021/04/19 00:45:29;;;;;;;34.20;23.02;;;;;;;6.60;100.00;96487.66;4968264;28;20085;-51
2021/04/19 00:47:57;;;;;;;34.92;22.88;;;;;;;6.56;100.00;96483.59;4969513;28;20074;-53
2021/04/19 00:50:27;;;;;;;33.00;22.75;;;;;;;6.95;100.00;96481.44;4965982;28;20069;-53
2021/04/19 00:52:55;;;;;;;34.03;22.63;;;;;;;6.67;100.00;96480.13;4960017;28;20039;-50
2021/04/19 00:55:22;;;;;;;36.28;22.58;;;;;;;6.69;100.00;96480.88;4945965;28;20109;-54
2021/04/19 00:57:50;;;;;;;32.50;22.30;;;;;;;6.75;100.00;96484.81;4943735;28;20082;-53
2021/04/19 01:00:21;;;;;;;32.65;22.75;;;;;;;6.55;100.00;96488.97;4965284;28;20588;-50
2021/04/19 01:02:49;;;;;;;32.33;20.77;;;;;;;6.76;100.00;96476.81;4957965;28;20074;-55
2021/04/19 01:05:21;;;;;;;34.10;23.05;;;;;;;6.57;100.00;96482.66;4958722;28;20461;-54
2021/04/19 01:07:48;;;;;;;30.50;21.25;;;;;;;6.49;100.00;96479.78;4960318;28;20074;-54
2021/04/19 01:10:15;;;;;;;35.88;22.55;;;;;;;6.72;100.00;96480.63;4947563;28;20493;-53
2021/04/19 01:12:43;;;;;;;36.53;22.45;;;;;;;6.70;100.00;96476.47;4943740;28;20078;-53
2021/04/19 01:15:14;;;;;;;33.05;23.15;;;;;;;6.50;100.00;96478.81;4945540;28;20724;-55
2021/04/19 01:17:42;;;;;;;31.80;22.08;;;;;;;6.51;100.00;96480.53;4941890;28;20070;-52
2021/04/19 01:20:11;;;;;;;33.78;23.33;;;;;;;6.39;100.00;96474.44;4957508;28;20073;-55
2021/04/19 01:22:40;;;;;;;34.40;22.95;;;;;;;6.42;100.00;96474.19;4966550;28;20066;-54
2021/04/19 01:25:14;;;;;;;36.03;23.30;;;;;;;6.36;100.00;96477.28;4968532;28;20086;-49
2021/04/19 01:27:42;;;;;;;33.38;22.52;;;;;;;6.31;100.00;96483.84;4968563;28;20078;-53
2021/04/19 01:30:10;;;;;;;35.05;22.85;;;;;;;6.23;100.00;96480.94;4950476;28;20069;-54
2021/04/19 01:32:38;;;;;;;34.00;22.70;;;;;;;6.12;100.00;96479.16;4946053;28;20070;-54
2021/04/19 01:35:07;;;;;;;37.95;24.10;;;;;;;6.16;100.00;96472.75;4949827;28;20077;-55
2021/04/19 01:37:35;;;;;;;35.00;23.67;;;;;;;6.16;100.00;96475.38;4953403;28;20070;-53
2021/04/19 01:40:04;;;;;;;33.60;22.73;;;;;;;6.44;100.00;96478.50;4971544;28;20086;-53
2021/04/19 01:42:32;;;;;;;35.50;23.52;;;;;;;6.14;100.00;96482.50;4971653;28;20082;-56
2021/04/19 01:44:59;;;;;;;36.67;23.45;;;;;;;6.04;100.00;96479.75;4971968;28;20093;-53
2021/04/19 01:47:27;;;;;;;34.25;22.75;;;;;;;6.02;100.00;96475.56;4967587;28;20103;-53
2021/04/19 01:49:55;;;;;;;34.72;22.10;;;;;;;6.08;100.00;96469.88;4969598;28;20059;-56
2021/04/19 01:52:22;;;;;;;32.42;22.40;;;;;;;6.02;100.00;96478.19;4966167;28;20067;-54
2021/04/19 01:54:50;;;;;;;33.75;22.98;;;;;;;5.94;100.00;96481.38;4974164;28;20082;-55
2021/04/19 01:57:19;;;;;;;32.13;20.63;;;;;;;6.04;100.00;96471.06;4948455;28;20540;-55
2021/04/19 01:59:46;;;;;;;32.53;21.63;;;;;;;6.10;100.00;96475.84;4965733;28;20062;-56
2021/04/19 02:02:19;;;;;;;31.10;21.27;;;;;;;6.07;100.00;96468.22;4967216;28;20074;-56
2021/04/19 02:04:55;;;;;;;32.53;21.55;;;;;;;5.80;100.00;96468.47;4971463;28;20073;-53
2021/04/19 02:07:28;;;;;;;31.25;21.58;;;;;;;5.89;100.00;96467.81;4969249;28;20082;-55
2021/04/19 02:10:01;;;;;;;34.55;21.05;;;;;;;6.01;100.00;96468.69;4970798;28;20082;-50
2021/04/19 02:12:39;;;;;;;31.13;21.25;;;;;;;5.77;100.00;96468.72;4951229;28;20085;-52
2021/04/19 02:15:10;;;;;;;32.53;21.73;;;;;;;5.99;100.00;96463.56;4968149;28;20039;-51
2021/04/19 02:17:42;;;;;;;32.58;21.92;;;;;;;5.99;100.00;96457.47;4962231;28;20071;-51
2021/04/19 02:20:13;;;;;;;33.00;21.73;;;;;;;5.81;100.00;96457.06;4970137;28;20075;-47
2021/04/19 02:22:44;;;;;;;31.08;21.42;;;;;;;5.83;100.00;96456.00;4970044;28;20525;-51
2021/04/19 02:25:15;;;;;;;32.58;21.50;;;;;;;5.81;100.00;96457.06;4968588;28;20082;-48
2021/04/19 02:27:47;;;;;;;32.83;21.25;;;;;;;5.71;100.00;96460.38;4972633;28;20093;-51
2021/04/19 02:30:17;;;;;;;31.60;20.75;;;;;;;5.59;100.00;96461.28;4967228;28;20074;-54
2021/04/19 02:32:47;;;;;;;32.03;21.73;;;;;;;5.47;100.00;96465.66;4964966;28;20101;-52
2021/04/19 02:35:16;;;;;;;32.20;20.77;;;;;;;5.67;100.00;96465.94;4986054;23;20520;-57
2021/04/19 02:37:45;;;;;;;32.83;20.85;;;;;;;5.55;100.00;96457.22;5027964;28;20073;-57
2021/04/19 02:40:13;;;;;;;33.30;20.02;;;;;;;5.36;100.00;96460.34;5022550;28;20077;-56
2021/04/19 02:42:43;;;;;;;31.77;21.08;;;;;;;5.64;100.00;96458.31;5041835;28;20677;-53
2021/04/19 02:45:14;;;;;;;32.88;21.10;;;;;;;5.62;100.00;96452.38;5021868;28;20552;-57
2021/04/19 02:47:43;;;;;;;37.90;23.20;;;;;;;5.80;100.00;96450.16;5057758;28;20076;-58
2021/04/19 02:50:13;;;;;;;37.75;23.23;;;;;;;5.41;100.00;96450.41;5049674;28;20056;-54
2021/04/19 02:52:42;;;;;;;33.35;22.92;;;;;;;5.55;100.00;96449.38;5047244;28;20075;-55
2021/04/19 02:55:11;;;;;;;32.80;22.13;;;;;;;5.59;100.00;96453.44;5061137;28;20080;-55
2021/04/19 02:57:43;;;;;;;34.13;22.48;;;;;;;5.64;100.00;96445.22;5051772;28;20087;-57
2021/04/19 03:00:13;;;;;;;34.55;23.17;;;;;;;5.55;100.00;96452.00;5050950;28;20069;-59
2021/04/19 03:02:43;;;;;;;31.80;21.57;;;;;;;5.58;100.00;96448.34;5062160;28;20071;-64
2021/04/19 03:05:12;;;;;;;32.70;22.13;;;;;;;5.58;100.00;96454.38;5064368;28;20502;-57
2021/04/19 03:07:43;;;;;;;38.67;23.63;;;;;;;5.53;100.00;96448.66;5049584;28;20034;-57
2021/04/19 03:10:13;;;;;;;35.63;22.52;;;;;;;5.46;100.00;96445.66;5032146;28;20518;-61
2021/04/19 03:12:43;;;;;;;34.95;21.67;;;;;;;5.53;100.00;96455.66;5051132;28;20110;-61
2021/04/19 03:15:15;;;;;;;32.17;21.85;;;;;;;5.55;100.00;96456.41;5056272;28;20490;-60
2021/04/19 03:17:43;;;;;;;35.13;22.40;;;;;;;5.47;100.00;96452.56;5060545;28;20483;-61
2021/04/19 03:20:12;;;;;;;33.97;22.25;;;;;;;5.50;100.00;96450.66;5063623;28;20072;-58
2021/04/19 03:22:42;;;;;;;35.38;22.35;;;;;;;5.60;100.00;96459.50;5060416;28;20060;-63
2021/04/19 03:25:11;;;;;;;33.80;22.48;;;;;;;5.57;100.00;96465.78;5062831;28;20110;-56
2021/04/19 03:27:40;;;;;;;34.95;22.05;;;;;;;5.94;100.00;96463.91;5067947;28;20087;-62
2021/04/19 03:30:08;;;;;;;33.88;22.67;;;;;;;6.05;100.00;96468.31;5058381;28;20059;-63
2021/04/19 03:32:39;;;;;;;35.35;22.95;;;;;;;6.05;100.00;96470.94;5047300;28;20060;-57
2021/04/19 03:35:11;;;;;;;34.58;21.98;;;;;;;6.37;100.00;96472.91;5031536;28;20484;-57
2021/04/19 03:37:40;;;;;;;33.03;22.02;;;;;;;5.90;100.00;96472.06;5038820;28;20514;-57
2021/04/19 03:40:13;;;;;;;32.28;22.67;;;;;;;5.92;100.00;96476.28;5059500;28;20080;-65
2021/04/19 03:42:42;;;;;;;35.78;22.27;;;;;;;5.77;100.00;96476.56;5053844;28;20080;-57
2021/04/19 03:45:12;;;;;;;32.25;21.85;;;;;;;5.68;100.00;96480.72;5058657;28;20076;-59
2021/04/19 03:47:41;;;;;;;31.07;21.57;;;;;;;5.80;100.00;96471.09;5051703;28;20064;-59
2021/04/19 03:50:10;;;;;;;32.40;22.47;;;;;;;5.64;100.00;96471.41;5043458;28;20104;-61
2021/04/19 03:52:38;;;;;;;33.72;22.17;;;;;;;5.61;100.00;96472.47;5042000;28;20072;-61
2021/04/19 03:55:10;;;;;;;34.67;22.33;;;;;;;5.88;100.00;96466.97;5042157;28;20080;-61
2021/04/19 03:57:40;;;;;;;31.98;20.70;;;;;;;5.81;100.00;96470.97;5061133;28;20080;-57
2021/04/19 04:00:14;;;;;;;29.70;20.30;;;;;;;5.82;100.00;96477.88;5059204;28;20116;-59
2021/04/19 04:02:45;;;;;;;34.75;21.85;;;;;;;6.13;100.00;96480.84;5043569;28;20076;-65
2021/04/19 04:05:13;;;;;;;36.40;24.13;;;;;;;5.78;100.00;96475.59;5047025;28;20064;-60
2021/04/19 04:07:41;;;;;;;32.95;20.95;;;;;;;5.72;100.00;96476.91;5041812;28;20065;-59
2021/04/19 04:10:10;;;;;;;33.53;21.35;;;;;;;5.70;100.00;96478.78;5050193;28;20065;-58
2021/04/19 04:12:37;;;;;;;35.40;22.45;;;;;;;5.83;100.00;96482.16;5050826;28;20087;-59
2021/04/19 04:15:06;;;;;;;36.72;23.35;;;;;;;5.74;100.00;96482.84;5050654;28;20064;-58
2021/04/19 04:17:38;;;;;;;34.30;22.15;;;;;;;5.77;100.00;96473.94;5053369;28;20072;-57
2021/04/19 04:20:09;;;;;;;33.72;21.13;;;;;;;5.60;100.00;96480.41;5056861;28;20068;-56
2021/04/19 04:22:36;;;;;;;35.65;23.08;;;;;;;5.69;100.00;96477.13;5046487;28;20077;-59
2021/04/19 04:25:05;;;;;;;34.90;21.35;;;;;;;5.39;100.00;96475.81;5037720;28;20087;-57
2021/04/19 04:27:33;;;;;;;33.22;21.75;;;;;;;5.69;100.00;96475.34;5046722;28;20473;-59
2021/04/19 04:30:00;;;;;;;31.13;20.77;;;;;;;5.72;100.00;96476.91;5043225;28;20070;-63
2021/04/19 04:32:28;;;;;;;37.60;22.10;;;;;;;5.80;100.00;96482.41;5051539;28;20087;-58
2021/04/19 04:34:55;;;;;;;32.92;21.85;;;;;;;5.84;100.00;96475.16;5050296;28;20072;-57
2021/04/19 04:37:24;;;;;;;36.08;23.05;;;;;;;5.94;100.00;96479.59;5055578;28;20071;-62
2021/04/19 04:39:52;;;;;;;35.10;22.10;;;;;;;5.89;100.00;96478.28;5057329;28;20474;-61
2021/04/19 04:42:20;;;;;;;36.15;21.73;;;;;;;6.07;100.00;96476.06;5042861;28;20500;-60
2021/04/19 04:44:51;;;;;;;36.83;22.80;;;;;;;5.67;100.00;96481.63;5047829;28;20087;-62
2021/04/19 04:47:25;;;;;;;34.92;21.95;;;;;;;5.69;100.00;96483.19;5044299;28;20057;-62
2021/04/19 04:50:03;;;;;;;34.47;22.55;;;;;;;6.07;100.00;96473.44;5049374;28;20079;-57
2021/04/19 04:52:45;;;;;;;35.58;21.20;;;;;;;5.81;100.00;96476.19;5056750;28;20065;-58
2021/04/19 04:55:14;;;;;;;37.42;22.75;;;;;;;5.92;100.00;96478.03;5050911;28;20103;-58
2021/04/19 04:57:45;;;;;;;33.95;22.27;;;;;;;6.00;100.00;96473.09;5042572;28;20122;-58
2021/04/19 05:00:15;;;;;;;33.95;22.02;;;;;;;6.03;100.00;96477.25;5036536;28;20514;-54
2021/04/19 05:02:44;;;;;;;36.13;21.95;;;;;;;6.24;100.00;96480.84;5052902;28;20072;-61
2021/04/19 05:05:13;;;;;;;31.75;20.92;;;;;;;5.82;100.00;96472.66;5031895;28;20068;-59
2021/04/19 05:07:41;;;;;;;33.83;22.00;;;;;;;6.20;100.00;96481.22;5043814;28;20079;-60
2021/04/19 05:10:10;;;;;;;34.85;21.92;;;;;;;6.40;100.00;96478.72;5058148;28;20548;-58
2021/04/19 05:12:39;;;;;;;35.35;22.75;;;;;;;6.66;100.00;96478.47;5044218;28;20077;-56
2021/04/19 05:15:09;;;;;;;37.85;23.67;;;;;;;6.76;100.00;96479.44;5052235;28;20056;-58
2021/04/19 05:17:37;;;;;;;;;;;;;;;7.30;100.00;96475.16;5045801;28;20069;-59
2021/04/19 05:20:08;;;;;;;30.90;21.35;;;;;;;7.20;100.00;96476.88;5056722;28;20405;-58
2021/04/19 05:22:37;;;;;;;33.72;21.85;;;;;;;7.47;100.00;96479.88;5067745;28;20107;-59
2021/04/19 05:25:07;;;;;;;36.17;23.23;;;;;;;7.67;100.00;96477.41;5062172;28;20080;-59
2021/04/19 05:27:35;;;;;;;35.88;22.92;;;;;;;7.79;100.00;96474.59;5059457;28;20742;-59
2021/04/19 05:30:03;;;;;;;36.45;22.48;;;;;;;7.40;100.00;96473.47;5063293;28;20064;-61
2021/04/19 05:32:31;;;;;;;35.58;22.45;;;;;;;7.31;100.00;96475.03;5045651;28;20072;-56
2021/04/19 05:35:01;;;;;;;35.05;22.23;;;;;;;7.51;100.00;96475.22;5053947;28;20149;-52
2021/04/19 05:37:29;;;;;;;33.22;22.27;;;;;;;7.36;100.00;96477.28;5052261;28;20056;-57
2021/04/19 05:39:57;;;;;;;32.13;20.48;;;;;;;7.07;100.00;96479.63;5046628;28;20084;-56
2021/04/19 05:42:26;;;;;;;33.97;21.20;;;;;;;7.01;100.00;96477.47;5060751;28;20778;-60
2021/04/19 05:44:54;;;;;;;33.25;20.65;;;;;;;7.36;100.00;96475.50;5051208;28;20041;-51
2021/04/19 05:47:21;;;;;;;33.97;22.50;;;;;;;7.52;100.00;96476.88;5044246;28;20065;-56
2021/04/19 05:49:49;;;;;;;33.35;21.80;;;;;;;7.87;100.00;96481.00;5043961;28;20097;-54
2021/04/19 05:52:20;;;;;;;33.22;22.33;;;;;;;7.75;100.00;96481.06;5051428;28;20579;-60
2021/04/19 05:54:47;;;;;;;34.63;21.58;;;;;;;7.72;100.00;96478.69;5042094;28;20092;-55
2021/04/19 05:57:29;;;;;;;32.40;21.83;;;;;;;7.21;100.00;96475.91;5056506;28;20069;-58
2021/04/19 06:00:03;;;;;;;32.53;21.00;;;;;;;7.04;100.00;96482.50;5053018;28;20116;-55
2021/04/19 06:02:38;;;;;;;30.42;20.85;;;;;;;7.38;100.00;96468.31;5055753;28;20068;-57
2021/04/19 06:05:08;;;;;;;31.00;21.02;;;;;;;7.37;100.00;96477.16;5053584;28;20060;-58
2021/04/19 06:07:42;;;;;;;30.73;21.47;;;;;;;7.38;100.00;96478.81;5040723;28;20068;-53
2021/04/19 06:10:14;;;;;;;32.50;21.50;;;;;;;7.34;100.00;96476.56;5052823;28;20537;-62
2021/04/19 06:12:46;;;;;;;33.65;21.67;;;;;;;7.23;100.00;96477.44;5057276;28;20179;-55
2021/04/19 06:15:15;;;;;;;32.88;22.00;;;;;;;7.58;100.00;96482.44;5054522;28;20459;-60
2021/04/19 06:17:46;;;;;;;30.42;21.13;;;;;;;7.76;100.00;96482.72;5052145;28;20069;-57
2021/04/19 06:20:15;;;;;;;33.63;22.17;;;;;;;7.97;100.00;96484.53;5044775;28;20076;-59
2021/04/19 06:22:43;;;;;;;30.90;21.17;;;;;;;8.14;100.00;96480.50;5047897;28;20056;-57
2021/04/19 06:25:12;;;;;;;29.73;18.52;;;;;;;7.55;100.00;96485.31;5061748;28;20080;-59
2021/04/19 06:27:40;;;;;;;32.20;21.58;;;;;;;7.56;100.00;96476.47;5065453;28;20475;-59
2021/04/19 06:30:17;;;;;;;34.10;21.83;;;;;;;8.28;100.00;96480.16;5059445;28;20064;-61
2021/04/19 06:32:46;;;;;;;33.00;21.40;;;;;;;8.53;100.00;96477.16;5052445;28;21213;-60
2021/04/19 06:35:15;;;;;;;31.67;20.92;;;;;;;8.52;100.00;96479.91;5062801;28;20526;-54
2021/04/19 06:37:48;;;;;;;31.88;20.13;;;;;;;8.35;100.00;96483.94;5061618;28;20064;-56
2021/04/19 06:40:16;;;;;;;32.90;20.65;;;;;;;8.76;100.00;96479.59;5057615;28;20068;-61
2021/04/19 06:42:44;;;;;;;32.05;20.65;;;;;;;8.65;100.00;96480.50;5053234;28;20080;-55
2021/04/19 06:45:13;;;;;;;31.13;21.27;;;;;;;8.61;100.00;96486.19;5056552;28;20079;-56
2021/04/19 06:47:42;;;;;;;31.65;20.85;;;;;;;8.44;100.00;96480.56;5056803;28;20479;-54
2021/04/19 06:50:11;;;;;;;31.17;22.05;;;;;;;8.58;100.00;96484.63;5061814;28;20071;-54
2021/04/19 06:52:46;;;;;;;29.10;19.85;;;;;;;8.68;100.00;96488.16;5063368;28;20071;-61
2021/04/19 06:55:15;;;;;;;29.13;19.77;;;;;;;9.18;100.00;96476.78;5057738;28;20079;-56
2021/04/19 06:57:45;;;;;;;31.10;21.10;;;;;;;9.32;100.00;96481.66;5065603;28;20574;-61
2021/04/19 07:00:14;;;;;;;28.45;19.33;;;;;;;8.73;100.00;96485.94;5053624;28;20657;-59
2021/04/19 07:02:48;;;;;;;28.27;19.58;;;;;;;9.02;100.00;96483.41;5044683;28;20605;-58
2021/04/19 07:05:21;;;;;;;29.73;19.70;;;;;;;9.45;100.00;96476.97;5046185;28;20068;-60
2021/04/19 07:07:58;;;;;;;31.10;20.90;;;;;;;9.13;100.00;96482.47;5033583;28;20072;-58
2021/04/19 07:10:26;;;;;;;30.85;21.58;;;;;;;9.27;100.00;96476.81;5039708;28;20087;-60
2021/04/19 07:12:55;;;;;;;30.80;21.35;;;;;;;9.30;100.00;96478.34;5049097;28;20140;-61
2021/04/19 07:15:23;;;;;;;28.90;19.23;;;;;;;9.65;100.00;96472.56;5050983;28;20076;-56
2021/04/19 07:18:10;;;;;;;29.80;19.85;;;;;;;9.80;100.00;96480.84;5052353;28;20060;-58
2021/04/19 07:20:38;;;;;;;31.08;21.10;;;;;;;10.09;100.00;96480.84;5051582;28;20530;-55
2021/04/19 07:23:05;;;;;;;32.70;19.20;;;;;;;9.94;100.00;96472.56;5052887;28;20068;-56
2021/04/19 07:25:33;;;;;;;28.50;20.63;;;;;;;9.78;100.00;96469.66;5042428;28;20072;-57
2021/04/19 07:28:04;;;;;;;29.58;20.25;;;;;;;9.77;100.00;96470.59;5060983;28;20095;-57
2021/04/19 07:30:31;;;;;;;;;;;;;;;9.59;100.00;96467.84;5060641;28;20083;-62
2021/04/19 07:33:00;;;;;;;29.65;20.17;;;;;;;9.86;100.00;96461.88;5047759;28;19951;-54
2021/04/19 07:35:30;;;;;;;29.10;20.30;;;;;;;10.38;100.00;96464.16;5048144;28;20549;-58
2021/04/19 07:38:00;;;;;;;29.38;19.27;;;;;;;10.96;100.00;96461.28;5052762;28;20501;-56
2021/04/19 07:40:30;;;;;;;27.10;19.13;;;;;;;10.89;100.00;96462.84;5036305;28;20073;-62
2021/04/19 07:43:11;;;;;;;28.00;19.98;;;;;;;11.04;100.00;96465.84;5051710;28;20057;-56
2021/04/19 07:45:42;;;;;;;30.67;20.30;;;;;;;11.02;100.00;96458.06;5046647;28;20064;-54
2021/04/19 07:48:30;;;;;;;31.92;19.80;;;;;;;10.86;100.00;96463.16;5028983;28;20499;-59
2021/04/19 07:50:59;;;;;;;32.97;20.10;;;;;;;10.80;100.00;96461.09;5039562;28;20057;-62
2021/04/19 07:53:26;;;;;;;29.50;19.55;;;;;;;11.03;100.00;96462.38;5039617;28;20069;-56
2021/04/19 07:55:56;;;;;;;27.73;19.75;;;;;;;11.05;100.00;96464.88;5044884;28;20075;-56
2021/04/19 07:58:25;;;;;;;27.67;18.98;;;;;;;10.64;100.00;96467.00;5047682;28;20057;-54
2021/04/19 08:01:01;;;;;;;29.63;20.45;;;;;;;10.19;100.00;96468.50;5052250;28;20067;-60
2021/04/19 08:03:37;;;;;;;26.73;19.17;;;;;;;10.29;100.00;96470.28;5056422;28;20087;-62
2021/04/19 08:06:18;;;;;;;30.42;20.83;;;;;;;10.03;100.00;96470.88;5043999;28;20068;-61
2021/04/19 08:08:46;;;;;;;29.98;19.08;;;;;;;9.89;100.00;96468.66;5043512;28;20083;-59
2021/04/19 08:11:14;;;;;;;24.48;18.08;;;;;;;10.20;100.00;96467.50;5052568;28;20463;-57
2021/04/19 08:13:43;;;;;;;28.63;19.00;;;;;;;10.58;100.00;96468.41;5037485;28;20462;-59
2021/04/19 08:16:15;;;;;;;28.83;18.77;;;;;;;10.80;100.00;96461.09;5044362;28;20065;-57
2021/04/19 08:18:45;;;;;;;29.65;18.45;;;;;;;11.10;100.00;96463.44;5051528;28;20068;-55
2021/04/19 08:21:13;;;;;;;26.52;17.63;;;;;;;11.02;100.00;96467.81;5046168;28;20067;-57
2021/04/19 08:23:44;;;;;;;28.13;18.25;;;;;;;11.16;100.00;96464.66;5053765;28;20067;-58
2021/04/19 08:26:12;;;;;;;27.95;17.80;;;;;;;11.62;100.00;96465.44;5048190;28;20060;-59
2021/04/19 08:28:43;;;;;;;27.38;18.15;;;;;;;11.01;100.00;96461.69;5051981;28;20450;-59
2021/04/19 08:31:12;;;;;;;26.30;18.13;;;;;;;11.11;100.00;96458.97;5051285;28;20060;-61
2021/04/19 08:33:39;;;;;;;31.00;19.80;;;;;;;11.13;100.00;96462.31;5037586;28;20064;-52
2021/04/19 08:36:10;;;;;;;30.90;18.13;;;;;;;11.15;100.00;96460.38;5080392;22;20452;-53
2021/04/19 08:38:38;;;;;;;28.40;18.40;;;;;;;11.27;100.00;96467.09;5014357;28;20081;-50
2021/04/19 08:41:06;;;;;;;25.98;17.55;;;;;;;12.31;97.96;96463.88;5022562;28;20065;-54
2021/04/19 08:43:35;;;;;;;27.73;18.90;;;;;;;11.93;98.82;96465.09;5021978;28;20068;-53
2021/04/19 08:46:05;;;;;;;27.43;16.73;;;;;;;12.29;100.00;96466.69;5023131;28;20088;-49
2021/04/19 08:48:33;;;;;;;25.73;18.23;;;;;;;12.27;94.33;96465.19;5020929;28;20081;-51
2021/04/19 08:51:02;;;;;;;24.52;16.60;;;;;;;12.16;95.87;96465.44;5022928;28;20073;-53
2021/04/19 08:53:29;;;;;;;24.35;16.27;;;;;;;12.09;95.33;96465.22;5016734;28;20072;-54
2021/04/19 08:56:02;;;;;;;23.98;16.75;;;;;;;11.65;97.76;96470.44;5021479;28;20537;-49
2021/04/19 08:58:33;;;;;;;29.50;18.23;;;;;;;11.81;98.53;96467.94;5020533;28;20065;-52
2021/04/19 09:01:01;;;;;;;;;;;;;;;12.23;97.32;96467.31;5026145;28;20077;-51
2021/04/19 09:03:28;;;;;;;24.50;16.95;;;;;;;11.64;100.00;96474.06;5019007;28;19965;-53
2021/04/19 09:05:55;;;;;;;25.23;17.20;;;;;;;11.91;100.00;96461.78;5009423;28;20184;-53
2021/04/19 09:08:23;;;;;;;26.52;16.63;;;;;;;11.68;100.00;96458.75;5017437;28;20084;-55
2021/04/19 09:10:54;;;;;;;26.65;18.08;;;;;;;11.38;100.00;96466.88;5015176;28;20065;-57
2021/04/19 09:13:29;;;;;;;28.58;17.75;;;;;;;11.99;100.00;96460.03;5007918;28;20071;-55
2021/04/19 09:16:13;;;;;;;25.65;17.27;;;;;;;11.92;96.93;96466.91;5023352;28;20499;-55
2021/04/19 09:18:41;;;;;;;26.05;17.02;;;;;;;11.97;99.46;96467.25;5012093;28;20069;-56
2021/04/19 09:21:09;;;;;;;26.10;16.63;;;;;;;12.52;96.33;96458.22;5017523;28;20069;-57
2021/04/19 09:23:36;;;;;;;25.63;16.98;;;;;;;12.09;97.25;96460.78;5025303;28;20080;-52
2021/04/19 09:26:07;;;;;;;25.15;17.02;;;;;;;11.93;100.00;96457.16;5022397;28;20508;-57
2021/04/19 09:28:53;;;;;;;;;;;;;;;11.95;96.65;96457.84;5017967;28;20069;-58
2021/04/19 09:31:56;;;;;;;26.63;16.85;;;;;;;12.42;90.74;96447.78;5007521;28;20381;-58
2021/04/19 09:34:45;;;;;;;24.88;15.93;;;;;;;12.33;95.98;96451.34;5021505;28;20084;-53
2021/04/19 09:37:17;;;;;;;22.83;14.95;;;;;;;12.60;89.90;96445.06;5010223;28;20091;-57
2021/04/19 09:39:47;;;;;;;26.20;15.40;;;;;;;12.98;85.23;96448.22;5022945;28;20120;-51
2021/04/19 09:42:16;;;;;;;22.88;14.27;;;;;;;13.30;79.19;96439.56;5025011;28;20064;-53
2021/04/19 09:44:54;;;;;;;24.88;15.85;;;;;;;13.25;80.06;96444.53;5025644;28;20069;-56
2021/04/19 09:47:47;;;;;;;20.17;14.75;;;;;;;13.96;71.54;96449.22;5022082;28;20487;-58
2021/04/19 09:50:16;;;;;;;24.45;15.45;;;;;;;14.20;74.37;96436.97;5012946;28;20065;-56
2021/04/19 09:52:50;;;;;;;19.70;13.40;;;;;;;13.88;73.08;96433.34;5018496;28;20069;-55
2021/04/19 09:55:19;;;;;;;19.65;13.65;;;;;;;14.02;70.15;96437.97;5018101;28;20062;-53
2021/04/19 09:57:47;;;;;;;23.90;15.82;;;;;;;14.21;73.42;96430.66;5030875;28;20102;-55
2021/04/19 10:00:17;;;;;;;25.35;14.90;;;;;;;14.36;69.32;96428.97;5026238;28;20064;-56
2021/04/19 10:02:44;;;;;;;20.98;14.50;;;;;;;14.16;69.75;96435.66;5025587;28;20069;-57
2021/04/19 10:05:15;;;;;;;19.05;13.25;;;;;;;14.28;66.17;96431.66;5020230;28;20070;-55
2021/04/19 10:07:45;;;;;;;18.85;13.90;;;;;;;14.59;67.95;96425.63;5019906;28;20068;-53
2021/04/19 10:10:17;;;;;;;21.52;13.88;;;;;;;15.12;58.96;96418.78;5021274;28;20559;-59
2021/04/19 10:12:46;;;;;;;19.38;12.50;;;;;;;14.43;65.60;96427.31;5028141;28;20619;-58
2021/04/19 10:15:19;;;;;;;21.95;14.25;;;;;;;14.14;66.61;96433.16;5023489;28;20413;-53
2021/04/19 10:17:47;;;;;;;20.30;14.50;;;;;;;14.36;67.63;96422.84;5025620;28;20558;-57
2021/04/19 10:20:19;;;;;;;21.08;15.13;;;;;;;14.27;76.35;96416.72;5019555;28;20073;-55
2021/04/19 10:22:47;;;;;;;20.92;15.13;;;;;;;14.16;71.20;96422.38;5012728;28;20068;-51
2021/04/19 10:25:15;;;;;;;21.80;14.50;;;;;;;13.97;77.77;96418.25;5023654;28;20069;-52
2021/04/19 10:27:48;;;;;;;19.98;13.80;;;;;;;13.83;73.05;96422.38;5028615;28;20073;-55
2021/04/19 10:30:19;;;;;;;18.80;13.45;;;;;;;13.92;71.41;96418.75;5007902;28;20069;-51
2021/04/19 10:32:51;;;;;;;20.67;13.85;;;;;;;14.44;66.06;96414.88;5006793;28;20525;-56
2021/04/19 10:35:35;;;;;;;21.20;14.73;;;;;;;14.70;61.45;96412.84;5008996;28;20109;-55
2021/04/19 10:38:13;;;;;;;22.17;13.90;;;;;;;14.99;62.42;96405.25;5014952;28;20069;-56
2021/04/19 10:40:41;;;;;;;17.85;12.75;;;;;;;14.75;57.10;96403.53;5008335;28;20062;-53
2021/04/19 10:43:10;;;;;;;17.48;11.93;;;;;;;14.74;59.38;96404.53;5004573;28;20078;-55
2021/04/19 10:45:38;;;;;;;18.77;12.35;;;;;;;14.32;60.00;96395.84;5021769;28;20078;-49
2021/04/19 10:48:15;;;;;;;19.08;13.18;;;;;;;14.94;59.47;96390.66;5017587;28;20141;-54
2021/04/19 10:50:44;;;;;;;18.65;12.80;;;;;;;15.10;57.02;96388.91;5024796;28;20072;-56
2021/04/19 10:53:11;;;;;;;21.13;13.52;;;;;;;14.83;61.36;96396.38;5012459;28;20053;-55
2021/04/19 10:55:39;;;;;;;22.48;15.02;;;;;;;13.89;90.41;96403.19;5014903;28;20534;-54
2021/04/19 10:58:07;;;;;;;24.65;17.25;;;;;;;13.37;100.00;96398.19;5022977;28;20104;-55
2021/04/19 11:00:35;;;;;;;29.60;21.08;;;;;;;13.27;100.00;96393.03;5021342;28;20077;-54
2021/04/19 11:03:03;;;;;;;29.25;19.60;;;;;;;12.96;100.00;96391.94;5005886;28;20070;-51
2021/04/19 11:05:32;;;;;;;26.05;19.42;;;;;;;12.92;100.00;96388.78;5018848;28;20534;-51
2021/04/19 11:08:05;;;;;;;27.88;19.10;;;;;;;13.02;100.00;96386.84;5016449;28;20062;-49
2021/04/19 11:10:32;;;;;;;25.30;17.27;;;;;;;12.85;100.00;96387.78;5014918;28;20061;-49
2021/04/19 11:13:02;;;;;;;27.38;18.42;;;;;;;12.77;100.00;96393.88;5019044;28;20073;-52
2021/04/19 11:15:35;;;;;;;26.58;18.33;;;;;;;13.02;100.00;96388.66;5025096;28;20472;-50
2021/04/19 11:18:18;;;;;;;31.63;19.40;;;;;;;13.26;100.00;96377.31;5010117;28;20065;-54
2021/04/19 11:20:46;;;;;;;26.23;17.65;;;;;;;13.57;100.00;96374.88;5013886;28;20069;-51
2021/04/19 11:23:22;;;;;;;26.45;18.23;;;;;;;13.80;100.00;96377.69;5015989;28;20065;-52
2021/04/19 11:25:50;;;;;;;27.48;16.80;;;;;;;13.79;91.44;96376.00;5019162;28;20072;-50
2021/04/19 11:28:19;;;;;;;23.15;16.20;;;;;;;13.63;92.66;96371.56;5024168;28;20502;-56
2021/04/19 11:30:47;;;;;;;24.15;16.95;;;;;;;14.25;81.59;96369.16;5022785;28;20073;-55